sensor_id;sensor_type;location;lat;lon;timestamp;pressure;altitude;pressure_sealevel;temperature;humidity
45523;BME280;31254;51.680;5.394;2024-03-06T00:00:21;101768.91;;;9.78;90.30
45523;BME280;31254;51.680;5.394;2024-03-06T00:02:49;101725.13;;;9.45;90.78
45523;BME280;31254;51.680;5.394;2024-03-06T00:05:15;101730.94;;;9.41;90.67
45523;BME280;31254;51.680;5.394;2024-03-06T00:07:42;101443.72;;;7.74;90.68
45523;BME280;31254;51.680;5.394;2024-03-06T00:10:09;101781.41;;;9.69;90.97
45523;BME280;31254;51.680;5.394;2024-03-06T00:12:35;101817.09;;;9.88;90.73
45523;BME280;31254;51.680;5.394;2024-03-06T00:15:02;101706.91;;;9.23;90.91
45523;BME280;31254;51.680;5.394;2024-03-06T00:17:28;101752.75;;;9.52;90.64
45523;BME280;31254;51.680;5.394;2024-03-06T00:19:55;101730.56;;;9.34;90.91
45523;BME280;31254;51.680;5.394;2024-03-06T00:22:21;101633.03;;;8.81;90.54
45523;BME280;31254;51.680;5.394;2024-03-06T00:24:50;101836.09;;;10.01;90.34
45523;BME280;31254;51.680;5.394;2024-03-06T00:27:16;101841.66;;;10.00;90.20
45523;BME280;31254;51.680;5.394;2024-03-06T00:29:43;101736.72;;;9.25;90.29
45523;BME280;31254;51.680;5.394;2024-03-06T00:32:10;101845.22;;;10.00;90.33
45523;BME280;31254;51.680;5.394;2024-03-06T00:34:36;101784.84;;;9.60;90.19
45523;BME280;31254;51.680;5.394;2024-03-06T00:37:03;101662.38;;;8.89;90.28
45523;BME280;31254;51.680;5.394;2024-03-06T00:39:29;101808.28;;;9.74;90.60
45523;BME280;31254;51.680;5.394;2024-03-06T00:41:56;101837.78;;;9.91;90.63
45523;BME280;31254;51.680;5.394;2024-03-06T00:44:23;101853.03;;;9.94;90.09
45523;BME280;31254;51.680;5.394;2024-03-06T00:46:49;101685.91;;;8.90;89.90
45523;BME280;31254;51.680;5.394;2024-03-06T00:49:16;101693.13;;;9.02;89.94
45523;BME280;31254;51.680;5.394;2024-03-06T00:51:42;101852.19;;;9.93;90.26
45523;BME280;31254;51.680;5.394;2024-03-06T00:54:14;101819.31;;;9.72;89.94
45523;BME280;31254;51.680;5.394;2024-03-06T00:56:41;101587.41;;;8.38;89.46
45523;BME280;31254;51.680;5.394;2024-03-06T00:59:07;101854.78;;;9.95;89.68
45523;BME280;31254;51.680;5.394;2024-03-06T01:01:34;101669.88;;;8.74;89.50
45523;BME280;31254;51.680;5.394;2024-03-06T01:04:01;101720.97;;;9.06;89.38
45523;BME280;31254;51.680;5.394;2024-03-06T01:06:27;101753.56;;;9.19;89.41
45523;BME280;31254;51.680;5.394;2024-03-06T01:08:55;101788.25;;;9.39;89.41
45523;BME280;31254;51.680;5.394;2024-03-06T01:11:23;101877.78;;;9.79;89.20
45523;BME280;31254;51.680;5.394;2024-03-06T01:13:49;101466.25;;;7.39;88.64
45523;BME280;31254;51.680;5.394;2024-03-06T01:16:16;101806.84;;;9.45;88.93
45523;BME280;31254;51.680;5.394;2024-03-06T01:18:43;101850.63;;;9.66;89.24
45523;BME280;31254;51.680;5.394;2024-03-06T01:21:10;101802.50;;;9.31;88.88
45523;BME280;31254;51.680;5.394;2024-03-06T01:23:36;101524.63;;;7.57;88.49
45523;BME280;31254;51.680;5.394;2024-03-06T01:26:03;101799.34;;;9.25;88.70
45523;BME280;31254;51.680;5.394;2024-03-06T01:28:30;101542.16;;;7.64;88.45
45523;BME280;31254;51.680;5.394;2024-03-06T01:30:56;101765.22;;;8.96;88.36
45523;BME280;31254;51.680;5.394;2024-03-06T01:33:25;101676.00;;;8.40;88.34
45523;BME280;31254;51.680;5.394;2024-03-06T01:35:52;101503.81;;;7.32;87.99
45523;BME280;31254;51.680;5.394;2024-03-06T01:38:19;101867.28;;;9.50;88.36
45523;BME280;31254;51.680;5.394;2024-03-06T01:40:45;101745.22;;;8.73;87.94
45523;BME280;31254;51.680;5.394;2024-03-06T01:43:22;101890.13;;;9.61;88.45
45523;BME280;31254;51.680;5.394;2024-03-06T01:45:50;101719.16;;;8.58;88.35
45523;BME280;31254;51.680;5.394;2024-03-06T01:48:23;101674.22;;;8.28;88.09
45523;BME280;31254;51.680;5.394;2024-03-06T01:50:55;101898.88;;;9.53;88.27
45523;BME280;31254;51.680;5.394;2024-03-06T01:53:23;101927.09;;;9.52;88.70
45523;BME280;31254;51.680;5.394;2024-03-06T01:55:53;101907.41;;;9.48;88.85
45523;BME280;31254;51.680;5.394;2024-03-06T01:58:20;101677.09;;;8.14;88.46
45523;BME280;31254;51.680;5.394;2024-03-06T02:00:49;101831.50;;;8.95;88.76
45523;BME280;31254;51.680;5.394;2024-03-06T02:03:17;101853.47;;;9.05;88.63
45523;BME280;31254;51.680;5.394;2024-03-06T02:05:44;101873.22;;;9.20;88.80
45523;BME280;31254;51.680;5.394;2024-03-06T02:08:11;101696.13;;;8.14;88.52
45523;BME280;31254;51.680;5.394;2024-03-06T02:10:37;101840.28;;;8.88;88.75
45523;BME280;31254;51.680;5.394;2024-03-06T02:13:04;101894.34;;;9.17;88.72
45523;BME280;31254;51.680;5.394;2024-03-06T02:15:31;101703.97;;;8.05;88.94
45523;BME280;31254;51.680;5.394;2024-03-06T02:17:57;101788.16;;;8.57;88.84
45523;BME280;31254;51.680;5.394;2024-03-06T02:20:25;101597.44;;;7.39;88.57
45523;BME280;31254;51.680;5.394;2024-03-06T02:22:52;101875.66;;;8.88;89.08
45523;BME280;31254;51.680;5.394;2024-03-06T02:25:18;101679.69;;;7.78;88.72
45523;BME280;31254;51.680;5.394;2024-03-06T02:27:46;101924.41;;;9.15;88.85
45523;BME280;31254;51.680;5.394;2024-03-06T02:30:14;101933.31;;;9.30;88.83
45523;BME280;31254;51.680;5.394;2024-03-06T02:32:45;101925.03;;;9.31;88.93
45523;BME280;31254;51.680;5.394;2024-03-06T02:35:11;101942.47;;;9.29;88.94
45523;BME280;31254;51.680;5.394;2024-03-06T02:37:38;101899.00;;;9.03;88.95
45523;BME280;31254;51.680;5.394;2024-03-06T02:40:05;101928.84;;;9.29;88.99
45523;BME280;31254;51.680;5.394;2024-03-06T02:42:33;101740.06;;;8.08;88.83
45523;BME280;31254;51.680;5.394;2024-03-06T02:45:00;101729.06;;;8.09;89.06
45523;BME280;31254;51.680;5.394;2024-03-06T02:47:26;101887.41;;;8.88;89.08
45523;BME280;31254;51.680;5.394;2024-03-06T02:49:53;101602.03;;;7.13;88.76
45523;BME280;31254;51.680;5.394;2024-03-06T02:52:20;101923.72;;;9.24;88.88
45523;BME280;31254;51.680;5.394;2024-03-06T02:54:46;101893.53;;;9.03;89.21
45523;BME280;31254;51.680;5.394;2024-03-06T02:57:13;101843.72;;;8.66;89.05
45523;BME280;31254;51.680;5.394;2024-03-06T02:59:40;101680.78;;;7.76;89.01
45523;BME280;31254;51.680;5.394;2024-03-06T03:02:06;101711.53;;;7.89;88.92
45523;BME280;31254;51.680;5.394;2024-03-06T03:04:33;101922.13;;;9.22;89.13
45523;BME280;31254;51.680;5.394;2024-03-06T03:07:00;101678.22;;;7.61;88.71
45523;BME280;31254;51.680;5.394;2024-03-06T03:09:26;101771.09;;;8.29;89.37
45523;BME280;31254;51.680;5.394;2024-03-06T03:11:54;101820.78;;;8.57;89.32
45523;BME280;31254;51.680;5.394;2024-03-06T03:14:20;101665.59;;;7.60;88.85
45523;BME280;31254;51.680;5.394;2024-03-06T03:16:47;101794.78;;;8.40;89.05
45523;BME280;31254;51.680;5.394;2024-03-06T03:19:13;101928.78;;;9.18;89.31
45523;BME280;31254;51.680;5.394;2024-03-06T03:21:44;101818.63;;;8.49;89.41
45523;BME280;31254;51.680;5.394;2024-03-06T03:24:11;101893.47;;;8.92;89.56
45523;BME280;31254;51.680;5.394;2024-03-06T03:26:38;101931.44;;;9.06;89.13
45523;BME280;31254;51.680;5.394;2024-03-06T03:29:04;101520.44;;;6.65;89.40
45523;BME280;31254;51.680;5.394;2024-03-06T03:31:31;101612.09;;;7.24;89.08
45523;BME280;31254;51.680;5.394;2024-03-06T03:33:59;101866.75;;;8.73;89.15
45523;BME280;31254;51.680;5.394;2024-03-06T03:36:26;101816.53;;;8.40;89.26
45523;BME280;31254;51.680;5.394;2024-03-06T03:38:52;101808.41;;;8.27;89.44
45523;BME280;31254;51.680;5.394;2024-03-06T03:41:19;101892.56;;;8.67;89.49
45523;BME280;31254;51.680;5.394;2024-03-06T03:43:46;101822.41;;;8.34;89.22
45523;BME280;31254;51.680;5.394;2024-03-06T03:46:12;101757.91;;;7.99;89.45
45523;BME280;31254;51.680;5.394;2024-03-06T03:48:40;102004.06;;;9.06;89.72
45523;BME280;31254;51.680;5.394;2024-03-06T03:51:06;101958.66;;;9.06;89.50
45523;BME280;31254;51.680;5.394;2024-03-06T03:53:34;101954.66;;;8.99;89.93
45523;BME280;31254;51.680;5.394;2024-03-06T03:56:02;101699.84;;;7.50;89.91
45523;BME280;31254;51.680;5.394;2024-03-06T03:58:30;101542.53;;;6.58;89.36
45523;BME280;31254;51.680;5.394;2024-03-06T04:00:56;101659.19;;;6.84;89.38
45523;BME280;31254;51.680;5.394;2024-03-06T04:03:23;101476.69;;;6.18;89.43
45523;BME280;31254;51.680;5.394;2024-03-06T04:05:51;101788.78;;;7.98;89.05
45523;BME280;31254;51.680;5.394;2024-03-06T04:08:18;101977.19;;;9.01;89.69
45523;BME280;31254;51.680;5.394;2024-03-06T04:10:45;101905.19;;;8.68;89.77
45523;BME280;31254;51.680;5.394;2024-03-06T04:13:12;101837.88;;;8.33;89.35
45523;BME280;31254;51.680;5.394;2024-03-06T04:15:39;101968.38;;;8.98;89.51
45523;BME280;31254;51.680;5.394;2024-03-06T04:18:05;101938.34;;;8.86;89.81
45523;BME280;31254;51.680;5.394;2024-03-06T04:20:32;101780.84;;;7.95;89.46
45523;BME280;31254;51.680;5.394;2024-03-06T04:22:59;101838.09;;;8.30;89.70
45523;BME280;31254;51.680;5.394;2024-03-06T04:25:25;101706.56;;;7.44;89.43
45523;BME280;31254;51.680;5.394;2024-03-06T04:27:52;101912.56;;;8.40;89.51
45523;BME280;31254;51.680;5.394;2024-03-06T04:30:18;102034.66;;;8.96;89.80
45523;BME280;31254;51.680;5.394;2024-03-06T04:32:45;101902.16;;;8.34;89.16
45523;BME280;31254;51.680;5.394;2024-03-06T04:35:11;101860.25;;;8.37;89.49
45523;BME280;31254;51.680;5.394;2024-03-06T04:37:38;101913.81;;;8.62;89.32
45523;BME280;31254;51.680;5.394;2024-03-06T04:40:07;101974.78;;;8.96;89.55
45523;BME280;31254;51.680;5.394;2024-03-06T04:42:34;101714.91;;;7.41;89.52
45523;BME280;31254;51.680;5.394;2024-03-06T04:45:11;101698.50;;;7.43;89.66
45523;BME280;31254;51.680;5.394;2024-03-06T04:47:38;101967.59;;;8.95;89.77
45523;BME280;31254;51.680;5.394;2024-03-06T04:50:11;101796.50;;;7.78;89.30
45523;BME280;31254;51.680;5.394;2024-03-06T04:52:38;101643.34;;;6.91;89.27
45523;BME280;31254;51.680;5.394;2024-03-06T04:55:06;101992.97;;;8.96;89.53
45523;BME280;31254;51.680;5.394;2024-03-06T04:57:34;101784.22;;;7.60;89.24
45523;BME280;31254;51.680;5.394;2024-03-06T05:00:01;101986.75;;;8.94;89.31
45523;BME280;31254;51.680;5.394;2024-03-06T05:02:32;101758.25;;;7.56;89.28
45523;BME280;31254;51.680;5.394;2024-03-06T05:05:20;101858.66;;;8.09;89.14
45523;BME280;31254;51.680;5.394;2024-03-06T05:08:04;101956.69;;;8.58;89.13
45523;BME280;31254;51.680;5.394;2024-03-06T05:10:48;101979.41;;;8.70;88.92
45523;BME280;31254;51.680;5.394;2024-03-06T05:13:32;101979.50;;;8.56;89.26
45523;BME280;31254;51.680;5.394;2024-03-06T05:16:16;101993.44;;;8.77;89.34
45523;BME280;31254;51.680;5.394;2024-03-06T05:19:01;101871.72;;;8.03;89.35
45523;BME280;31254;51.680;5.394;2024-03-06T05:21:45;101963.41;;;8.53;89.35
45523;BME280;31254;51.680;5.394;2024-03-06T05:24:29;101923.22;;;8.31;89.35
45523;BME280;31254;51.680;5.394;2024-03-06T05:27:13;102001.91;;;8.72;89.21
45523;BME280;31254;51.680;5.394;2024-03-06T05:30:01;101970.94;;;8.49;89.33
45523;BME280;31254;51.680;5.394;2024-03-06T05:32:44;101951.00;;;8.36;89.59
45523;BME280;31254;51.680;5.394;2024-03-06T05:35:31;102017.06;;;8.76;89.33
45523;BME280;31254;51.680;5.394;2024-03-06T05:38:14;101989.75;;;8.52;89.40
45523;BME280;31254;51.680;5.394;2024-03-06T05:40:58;101976.97;;;8.40;89.18
45523;BME280;31254;51.680;5.394;2024-03-06T05:43:42;101859.41;;;7.72;89.18
45523;BME280;31254;51.680;5.394;2024-03-06T05:46:26;102015.63;;;8.58;89.52
45523;BME280;31254;51.680;5.394;2024-03-06T05:49:10;101968.38;;;8.33;89.09
45523;BME280;31254;51.680;5.394;2024-03-06T05:51:55;101934.56;;;8.12;89.43
45523;BME280;31254;51.680;5.394;2024-03-06T05:54:39;101982.09;;;8.32;89.58
45523;BME280;31254;51.680;5.394;2024-03-06T05:57:23;101899.84;;;7.90;88.81
45523;BME280;31254;51.680;5.394;2024-03-06T06:00:08;102045.66;;;8.69;89.37
45523;BME280;31254;51.680;5.394;2024-03-06T06:02:38;102061.25;;;8.80;89.31
45523;BME280;31254;51.680;5.394;2024-03-06T06:05:05;102070.25;;;8.81;89.54
45523;BME280;31254;51.680;5.394;2024-03-06T06:07:49;101982.28;;;8.16;89.27
45523;BME280;31254;51.680;5.394;2024-03-06T06:10:16;101930.38;;;7.93;89.03
45523;BME280;31254;51.680;5.394;2024-03-06T06:12:47;102061.88;;;8.71;88.90
45523;BME280;31254;51.680;5.394;2024-03-06T06:15:14;102040.31;;;8.55;88.80
45523;BME280;31254;51.680;5.394;2024-03-06T06:17:42;102018.28;;;8.32;88.76
45523;BME280;31254;51.680;5.394;2024-03-06T06:20:11;102009.28;;;8.32;88.93
45523;BME280;31254;51.680;5.394;2024-03-06T06:22:42;102111.84;;;8.83;88.99
45523;BME280;31254;51.680;5.394;2024-03-06T06:25:09;101873.13;;;7.43;88.65
45523;BME280;31254;51.680;5.394;2024-03-06T06:27:37;102057.84;;;8.51;88.58
45523;BME280;31254;51.680;5.394;2024-03-06T06:30:05;102115.88;;;8.77;88.68
45523;BME280;31254;51.680;5.394;2024-03-06T06:32:33;102098.78;;;8.75;88.99
45523;BME280;31254;51.680;5.394;2024-03-06T06:35:00;102044.94;;;8.27;88.87
45523;BME280;31254;51.680;5.394;2024-03-06T06:37:27;102011.94;;;8.06;88.45
45523;BME280;31254;51.680;5.394;2024-03-06T06:39:53;102115.13;;;8.75;89.12
45523;BME280;31254;51.680;5.394;2024-03-06T06:42:20;102052.13;;;8.28;88.71
45523;BME280;31254;51.680;5.394;2024-03-06T06:44:47;102126.09;;;8.73;88.57
45523;BME280;31254;51.680;5.394;2024-03-06T06:47:13;102082.06;;;8.41;88.41
45523;BME280;31254;51.680;5.394;2024-03-06T06:49:40;102019.00;;;7.96;88.17
45523;BME280;31254;51.680;5.394;2024-03-06T06:52:07;102120.31;;;8.52;87.57
45523;BME280;31254;51.680;5.394;2024-03-06T06:54:34;102078.66;;;8.24;87.50
45523;BME280;31254;51.680;5.394;2024-03-06T06:57:00;102073.63;;;8.18;87.54
45523;BME280;31254;51.680;5.394;2024-03-06T06:59:27;102038.22;;;7.93;87.48
45523;BME280;31254;51.680;5.394;2024-03-06T07:01:55;102171.22;;;8.63;87.48
45523;BME280;31254;51.680;5.394;2024-03-06T07:04:22;101915.97;;;7.25;87.04
45523;BME280;31254;51.680;5.394;2024-03-06T07:06:50;101905.25;;;7.09;87.50
45523;BME280;31254;51.680;5.394;2024-03-06T07:09:17;102171.22;;;8.63;87.67
45523;BME280;31254;51.680;5.394;2024-03-06T07:11:44;102142.75;;;8.41;87.76
45523;BME280;31254;51.680;5.394;2024-03-06T07:14:14;102167.94;;;8.58;88.27
45523;BME280;31254;51.680;5.394;2024-03-06T07:16:44;102106.91;;;8.22;87.77
45523;BME280;31254;51.680;5.394;2024-03-06T07:19:11;102066.06;;;7.96;88.17
45523;BME280;31254;51.680;5.394;2024-03-06T07:21:38;102095.09;;;7.96;88.20
45523;BME280;31254;51.680;5.394;2024-03-06T07:24:05;102174.28;;;8.58;87.98
45523;BME280;31254;51.680;5.394;2024-03-06T07:26:32;102069.97;;;7.92;87.84
45523;BME280;31254;51.680;5.394;2024-03-06T07:28:59;102169.56;;;8.48;88.11
45523;BME280;31254;51.680;5.394;2024-03-06T07:31:27;102092.63;;;8.05;87.80
45523;BME280;31254;51.680;5.394;2024-03-06T07:33:53;101992.84;;;7.53;87.73
45523;BME280;31254;51.680;5.394;2024-03-06T07:36:20;102180.38;;;8.62;87.70
45523;BME280;31254;51.680;5.394;2024-03-06T07:38:48;102185.81;;;8.62;87.62
45523;BME280;31254;51.680;5.394;2024-03-06T07:41:14;102193.00;;;8.63;87.70
45523;BME280;31254;51.680;5.394;2024-03-06T07:43:41;101891.38;;;6.87;87.96
45523;BME280;31254;51.680;5.394;2024-03-06T07:46:07;102110.53;;;8.08;88.13
45523;BME280;31254;51.680;5.394;2024-03-06T07:48:37;102177.94;;;8.45;88.28
45523;BME280;31254;51.680;5.394;2024-03-06T07:51:05;102180.78;;;8.56;87.89
45523;BME280;31254;51.680;5.394;2024-03-06T07:53:31;102197.16;;;8.69;87.72
45523;BME280;31254;51.680;5.394;2024-03-06T07:55:58;102177.22;;;8.55;87.55
45523;BME280;31254;51.680;5.394;2024-03-06T07:58:25;102187.09;;;8.56;88.17
45523;BME280;31254;51.680;5.394;2024-03-06T08:00:52;102158.09;;;8.42;88.11
45523;BME280;31254;51.680;5.394;2024-03-06T08:03:22;102083.31;;;7.95;87.98
45523;BME280;31254;51.680;5.394;2024-03-06T08:05:52;102218.63;;;8.73;88.27
45523;BME280;31254;51.680;5.394;2024-03-06T08:08:19;102216.53;;;8.77;88.01
45523;BME280;31254;51.680;5.394;2024-03-06T08:10:47;102220.91;;;8.80;88.03
45523;BME280;31254;51.680;5.394;2024-03-06T08:13:14;102159.06;;;8.41;87.41
45523;BME280;31254;51.680;5.394;2024-03-06T08:15:40;102115.56;;;8.14;87.56
45523;BME280;31254;51.680;5.394;2024-03-06T08:18:10;102225.72;;;8.89;87.52
45523;BME280;31254;51.680;5.394;2024-03-06T08:20:37;102233.78;;;8.90;87.71
45523;BME280;31254;51.680;5.394;2024-03-06T08:23:04;102242.03;;;8.89;87.55
45523;BME280;31254;51.680;5.394;2024-03-06T08:25:31;102240.75;;;8.94;87.73
45523;BME280;31254;51.680;5.394;2024-03-06T08:27:59;102207.19;;;8.68;87.33
45523;BME280;31254;51.680;5.394;2024-03-06T08:30:26;102251.44;;;8.98;87.38
45523;BME280;31254;51.680;5.394;2024-03-06T08:32:52;102157.13;;;8.44;87.22
45523;BME280;31254;51.680;5.394;2024-03-06T08:35:19;102174.59;;;8.54;87.40
45523;BME280;31254;51.680;5.394;2024-03-06T08:37:48;102036.53;;;7.50;87.32
45523;BME280;31254;51.680;5.394;2024-03-06T08:40:16;102218.63;;;8.73;87.41
45523;BME280;31254;51.680;5.394;2024-03-06T08:42:44;102015.22;;;7.44;87.38
45523;BME280;31254;51.680;5.394;2024-03-06T08:45:11;101910.06;;;6.91;87.20
45523;BME280;31254;51.680;5.394;2024-03-06T08:47:38;102228.69;;;8.71;87.81
45523;BME280;31254;51.680;5.394;2024-03-06T08:50:05;102268.00;;;9.07;87.46
45523;BME280;31254;51.680;5.394;2024-03-06T08:52:34;102070.38;;;7.86;87.21
45523;BME280;31254;51.680;5.394;2024-03-06T08:55:04;102290.34;;;9.12;87.21
45523;BME280;31254;51.680;5.394;2024-03-06T08:57:36;102159.84;;;8.44;87.35
45523;BME280;31254;51.680;5.394;2024-03-06T09:00:04;102205.41;;;8.67;87.39
45523;BME280;31254;51.680;5.394;2024-03-06T09:02:30;102182.31;;;8.60;87.54
45523;BME280;31254;51.680;5.394;2024-03-06T09:04:57;102281.56;;;9.22;87.17
45523;BME280;31254;51.680;5.394;2024-03-06T09:07:23;102193.56;;;8.68;87.48
45523;BME280;31254;51.680;5.394;2024-03-06T09:09:50;102290.38;;;9.25;87.65
45523;BME280;31254;51.680;5.394;2024-03-06T09:12:20;102293.97;;;9.26;87.70
45523;BME280;31254;51.680;5.394;2024-03-06T09:14:46;101637.44;;;5.19;87.12
45523;BME280;31254;51.680;5.394;2024-03-06T09:17:13;102216.09;;;8.70;87.78
45523;BME280;31254;51.680;5.394;2024-03-06T09:19:41;102202.81;;;8.66;87.66
45523;BME280;31254;51.680;5.394;2024-03-06T09:22:25;102250.03;;;9.05;87.67
45523;BME280;31254;51.680;5.394;2024-03-06T09:24:52;102229.22;;;8.91;87.59
45523;BME280;31254;51.680;5.394;2024-03-06T09:27:18;102311.63;;;9.33;88.04
45523;BME280;31254;51.680;5.394;2024-03-06T09:29:45;101999.94;;;7.56;87.50
45523;BME280;31254;51.680;5.394;2024-03-06T09:32:11;102241.44;;;9.11;87.41
45523;BME280;31254;51.680;5.394;2024-03-06T09:34:45;101896.22;;;6.82;87.50
45523;BME280;31254;51.680;5.394;2024-03-06T09:37:11;102311.97;;;9.41;87.88
45523;BME280;31254;51.680;5.394;2024-03-06T09:39:38;102243.38;;;8.96;87.56
45523;BME280;31254;51.680;5.394;2024-03-06T09:42:05;102330.38;;;9.50;87.60
45523;BME280;31254;51.680;5.394;2024-03-06T09:44:31;102108.91;;;8.33;87.55
45523;BME280;31254;51.680;5.394;2024-03-06T09:46:59;102325.50;;;9.56;87.86
45523;BME280;31254;51.680;5.394;2024-03-06T09:49:29;102262.72;;;9.31;87.20
45523;BME280;31254;51.680;5.394;2024-03-06T09:51:58;102337.94;;;9.73;87.57
45523;BME280;31254;51.680;5.394;2024-03-06T09:54:25;102310.88;;;9.57;87.46
45523;BME280;31254;51.680;5.394;2024-03-06T09:56:53;102233.47;;;9.08;87.77
45523;BME280;31254;51.680;5.394;2024-03-06T09:59:22;102219.88;;;9.08;87.43
45523;BME280;31254;51.680;5.394;2024-03-06T10:01:57;102282.66;;;9.58;87.61
45523;BME280;31254;51.680;5.394;2024-03-06T10:04:27;102299.03;;;9.70;87.19
45523;BME280;31254;51.680;5.394;2024-03-06T10:06:58;102338.59;;;10.02;86.82
45523;BME280;31254;51.680;5.394;2024-03-06T10:09:26;102295.97;;;9.88;86.35
45523;BME280;31254;51.680;5.394;2024-03-06T10:11:53;102299.75;;;9.98;86.25
45523;BME280;31254;51.680;5.394;2024-03-06T10:14:23;102343.91;;;10.42;85.64
45523;BME280;31254;51.680;5.394;2024-03-06T10:19:24;102143.44;;;9.37;85.56
45523;BME280;31254;51.680;5.394;2024-03-06T10:21:51;102278.31;;;10.31;85.23
45523;BME280;31254;51.680;5.394;2024-03-06T10:24:25;102337.59;;;10.66;85.62
45523;BME280;31254;51.680;5.394;2024-03-06T10:26:55;101999.09;;;8.74;84.57
45523;BME280;31254;51.680;5.394;2024-03-06T10:29:24;102165.91;;;9.77;84.90
45523;BME280;31254;51.680;5.394;2024-03-06T10:31:55;102274.59;;;10.69;84.71
45523;BME280;31254;51.680;5.394;2024-03-06T10:34:28;102275.16;;;10.74;84.84
45523;BME280;31254;51.680;5.394;2024-03-06T10:36:57;102282.84;;;10.80;85.09
45523;BME280;31254;51.680;5.394;2024-03-06T10:39:24;102102.28;;;9.89;85.00
45523;BME280;31254;51.680;5.394;2024-03-06T10:41:55;102289.09;;;11.18;84.87
45523;BME280;31254;51.680;5.394;2024-03-06T10:44:24;102334.53;;;11.54;84.40
45523;BME280;31254;51.680;5.394;2024-03-06T10:47:02;102230.56;;;10.97;84.29
45523;BME280;31254;51.680;5.394;2024-03-06T10:49:30;102319.50;;;11.48;83.98
45523;BME280;31254;51.680;5.394;2024-03-06T10:52:01;102276.84;;;11.34;84.00
45523;BME280;31254;51.680;5.394;2024-03-06T10:54:29;102150.56;;;10.73;84.00
45523;BME280;31254;51.680;5.394;2024-03-06T10:56:56;102313.59;;;11.88;83.47
45523;BME280;31254;51.680;5.394;2024-03-06T10:59:27;102275.66;;;11.73;83.66
45523;BME280;31254;51.680;5.394;2024-03-06T11:01:59;101987.91;;;10.12;83.26
45523;BME280;31254;51.680;5.394;2024-03-06T11:04:30;102310.28;;;12.19;83.21
45523;BME280;31254;51.680;5.394;2024-03-06T11:07:01;102345.22;;;12.49;82.98
45523;BME280;31254;51.680;5.394;2024-03-06T11:09:37;102281.69;;;12.34;82.84
45523;BME280;31254;51.680;5.394;2024-03-06T11:12:05;102215.53;;;11.95;82.65
45523;BME280;31254;51.680;5.394;2024-03-06T11:14:36;102098.53;;;11.32;82.33
45523;BME280;31254;51.680;5.394;2024-03-06T11:19:32;102315.28;;;12.80;82.88
45523;BME280;31254;51.680;5.394;2024-03-06T11:21:59;102226.66;;;12.37;82.28
45523;BME280;31254;51.680;5.394;2024-03-06T11:24:32;102296.34;;;12.88;82.47
45523;BME280;31254;51.680;5.394;2024-03-06T11:27:03;102326.59;;;13.19;82.36
45523;BME280;31254;51.680;5.394;2024-03-06T11:30:09;102339.25;;;13.43;82.06
45523;BME280;31254;51.680;5.394;2024-03-06T11:33:00;102316.69;;;13.39;81.64
45523;BME280;31254;51.680;5.394;2024-03-06T11:35:28;102208.84;;;12.87;81.43
45523;BME280;31254;51.680;5.394;2024-03-06T11:37:55;102058.13;;;12.14;81.21
45523;BME280;31254;51.680;5.394;2024-03-06T11:40:25;102348.06;;;13.88;81.52
45523;BME280;31254;51.680;5.394;2024-03-06T11:42:52;102144.16;;;12.74;81.12
45523;BME280;31254;51.680;5.394;2024-03-06T11:45:19;102279.84;;;13.74;81.23
45523;BME280;31254;51.680;5.394;2024-03-06T11:48:00;102372.50;;;14.22;81.34
45523;BME280;31254;51.680;5.394;2024-03-06T11:50:29;102232.97;;;13.56;80.77
45523;BME280;31254;51.680;5.394;2024-03-06T11:52:58;102002.06;;;12.29;80.39
45523;BME280;31254;51.680;5.394;2024-03-06T11:55:25;102271.78;;;14.13;80.27
45523;BME280;31254;51.680;5.394;2024-03-06T11:57:52;102329.41;;;14.54;80.07
45523;BME280;31254;51.680;5.394;2024-03-06T12:00:23;101972.41;;;12.24;79.82
45523;BME280;31254;51.680;5.394;2024-03-06T12:02:50;102316.03;;;14.60;79.66
45523;BME280;31254;51.680;5.394;2024-03-06T12:05:22;102216.56;;;13.97;79.53
45523;BME280;31254;51.680;5.394;2024-03-06T12:07:50;102354.66;;;14.78;79.07
45523;BME280;31254;51.680;5.394;2024-03-06T12:10:17;102320.00;;;14.47;78.47
45523;BME280;31254;51.680;5.394;2024-03-06T12:12:44;102058.59;;;12.82;75.98
45523;BME280;31254;51.680;5.394;2024-03-06T12:15:12;102368.09;;;14.72;76.08
45523;BME280;31254;51.680;5.394;2024-03-06T12:17:49;102379.63;;;14.66;75.23
45523;BME280;31254;51.680;5.394;2024-03-06T12:20:18;102233.44;;;13.92;74.52
45523;BME280;31254;51.680;5.394;2024-03-06T12:22:49;102367.91;;;14.63;73.98
45523;BME280;31254;51.680;5.394;2024-03-06T12:25:23;102318.78;;;14.30;73.66
45523;BME280;31254;51.680;5.394;2024-03-06T12:27:51;102381.78;;;14.62;75.11
45523;BME280;31254;51.680;5.394;2024-03-06T12:30:19;102058.22;;;12.87;76.06
45523;BME280;31254;51.680;5.394;2024-03-06T12:33:00;102337.88;;;14.72;76.50
45523;BME280;31254;51.680;5.394;2024-03-06T12:35:30;102085.00;;;13.35;76.77
45523;BME280;31254;51.680;5.394;2024-03-06T12:37:57;102350.66;;;14.92;76.97
45523;BME280;31254;51.680;5.394;2024-03-06T12:40:24;102259.13;;;14.32;76.60
45523;BME280;31254;51.680;5.394;2024-03-06T12:42:51;102165.09;;;13.79;75.17
45523;BME280;31254;51.680;5.394;2024-03-06T12:45:19;102348.31;;;14.88;75.22
45523;BME280;31254;51.680;5.394;2024-03-06T12:47:47;102294.09;;;14.39;75.56
45523;BME280;31254;51.680;5.394;2024-03-06T12:50:17;102227.72;;;14.05;75.40
45523;BME280;31254;51.680;5.394;2024-03-06T12:52:43;101996.00;;;12.47;74.74
45523;BME280;31254;51.680;5.394;2024-03-06T12:55:12;102225.38;;;14.00;75.51
45523;BME280;31254;51.680;5.394;2024-03-06T12:57:41;102149.75;;;13.67;76.43
45523;BME280;31254;51.680;5.394;2024-03-06T13:00:08;102207.28;;;13.88;77.23
45523;BME280;31254;51.680;5.394;2024-03-06T13:02:43;102274.03;;;14.39;76.33
45523;BME280;31254;51.680;5.394;2024-03-06T13:05:11;102239.72;;;14.14;75.90
45523;BME280;31254;51.680;5.394;2024-03-06T13:07:37;102269.53;;;14.38;75.92
45523;BME280;31254;51.680;5.394;2024-03-06T13:10:04;102369.41;;;14.77;76.27
45523;BME280;31254;51.680;5.394;2024-03-06T13:12:31;102074.19;;;13.12;76.09